Time;durP1;ratioP1;P1;durP2;ratioP2;P2;SDS_P1;SDS_P2;PMS_P1;PMS_P2;Temp;Humidity;BMP_temperature;BMP_pressure;BME280_temperature;BME280_humidity;BME280_pressure;Samples;Min_cycle;Max_cycle;Signal;HPM_P1;HPM_P2
2023/04/14 00:02:25;;;;;;;5.40;1.40;;;;;;;;;;5283029;28;20029;-74
2023/04/14 00:04:57;;;;;;;6.75;2.10;;;;;;;;;;5282853;28;20433;-74
2023/04/14 00:07:28;;;;;;;6.52;2.62;;;;;;;;;;5282777;28;20451;-74
2023/04/14 00:09:59;;;;;;;8.73;2.38;;;;;;;;;;5283005;28;20459;-74
2023/04/14 00:12:30;;;;;;;7.20;2.25;;;;;;;;;;5283610;28;20105;-75
2023/04/14 00:15:01;;;;;;;5.03;1.73;;;;;;;;;;5282673;28;20024;-74
2023/04/14 00:17:33;;;;;;;6.13;1.85;;;;;;;;;;5283523;28;20032;-75
2023/04/14 00:20:04;;;;;;;9.00;2.22;;;;;;;;;;5283488;28;20021;-74
2023/04/14 00:22:36;;;;;;;4.32;1.08;;;;;;;;;;5282423;28;20021;-74
2023/04/14 00:25:07;;;;;;;3.80;1.00;;;;;;;;;;5283491;28;20028;-72
2023/04/14 00:27:38;;;;;;;6.00;1.48;;;;;;;;;;5283173;28;20516;-75
2023/04/14 00:30:10;;;;;;;4.43;1.10;;;;;;;;;;5282821;28;20099;-74
2023/04/14 00:32:41;;;;;;;5.20;1.00;;;;;;;;;;5282810;28;20024;-75
2023/04/14 00:35:12;;;;;;;5.30;1.58;;;;;;;;;;5282809;28;20021;-74
2023/04/14 00:37:43;;;;;;;4.40;1.08;;;;;;;;;;5282802;28;20017;-75
2023/04/14 00:40:14;;;;;;;5.04;1.56;;;;;;;;;;5283241;28;20386;-74
2023/04/14 00:42:46;;;;;;;3.80;0.80;;;;;;;;;;5281899;28;20474;-75
2023/04/14 00:45:17;;;;;;;4.18;1.38;;;;;;;;;;5283076;28;20041;-74
2023/04/14 00:47:49;;;;;;;5.18;1.27;;;;;;;;;;5282451;28;20029;-74
2023/04/14 00:50:20;;;;;;;3.33;1.00;;;;;;;;;;5281868;28;20395;-74
2023/04/14 00:52:52;;;;;;;4.28;1.27;;;;;;;;;;5282022;28;20452;-74
2023/04/14 00:55:24;;;;;;;4.47;1.10;;;;;;;;;;5282683;28;20020;-74
2023/04/14 00:57:55;;;;;;;4.88;1.02;;;;;;;;;;5281170;28;20021;-75
2023/04/14 01:00:26;;;;;;;5.95;1.05;;;;;;;;;;5282646;28;20032;-74
2023/04/14 01:02:58;;;;;;;6.28;1.10;;;;;;;;;;5281655;28;20032;-74
2023/04/14 01:05:29;;;;;;;5.90;1.00;;;;;;;;;;5281353;28;20387;-75
2023/04/14 01:08:02;;;;;;;4.93;1.00;;;;;;;;;;5282002;28;20376;-75
2023/04/14 01:10:36;;;;;;;3.25;0.65;;;;;;;;;;5281479;28;20431;-74
2023/04/14 01:13:14;;;;;;;6.85;0.95;;;;;;;;;;5281796;28;20063;-74
2023/04/14 01:15:46;;;;;;;3.03;1.10;;;;;;;;;;5281445;28;20056;-74
2023/04/14 01:18:35;;;;;;;4.85;1.00;;;;;;;;;;5281886;28;20102;-73
2023/04/14 01:21:12;;;;;;;8.25;1.85;;;;;;;;;;5281858;28;20270;-73
2023/04/14 01:24:03;;;;;;;6.15;1.52;;;;;;;;;;5281823;28;20052;-74
2023/04/14 01:26:34;;;;;;;6.03;1.60;;;;;;;;;;5280091;28;20376;-74
2023/04/14 01:29:24;;;;;;;3.83;1.17;;;;;;;;;;5281608;28;20020;-73
2023/04/14 01:32:01;;;;;;;6.95;1.80;;;;;;;;;;5280628;28;20020;-73
2023/04/14 01:34:32;;;;;;;2.92;1.10;;;;;;;;;;5281556;28;20095;-73
2023/04/14 01:37:06;;;;;;;6.20;1.72;;;;;;;;;;5281442;28;20099;-73
2023/04/14 01:39:40;;;;;;;5.50;1.27;;;;;;;;;;5280572;28;20070;-74
2023/04/14 01:42:13;;;;;;;5.15;1.40;;;;;;;;;;5281941;28;20024;-73
2023/04/14 01:44:46;;;;;;;4.93;1.75;;;;;;;;;;5281484;28;20438;-73
2023/04/14 01:47:19;;;;;;;4.28;1.40;;;;;;;;;;5280859;28;20024;-73
2023/04/14 01:49:52;;;;;;;8.23;1.73;;;;;;;;;;5280890;28;20020;-73
2023/04/14 01:52:24;;;;;;;4.40;1.00;;;;;;;;;;5281798;28;20021;-73
2023/04/14 01:54:56;;;;;;;4.57;1.27;;;;;;;;;;5280805;28;20031;-73
2023/04/14 01:57:27;;;;;;;6.53;1.17;;;;;;;;;;5281761;28;20016;-73
2023/04/14 02:00:00;;;;;;;6.35;0.98;;;;;;;;;;5280077;28;20032;-73
2023/04/14 02:02:32;;;;;;;7.00;0.90;;;;;;;;;;5281206;28;20406;-74
2023/04/14 02:05:03;;;;;;;5.30;0.90;;;;;;;;;;5281132;28;20060;-74
2023/04/14 02:07:34;;;;;;;3.67;1.25;;;;;;;;;;5280191;28;20024;-73
2023/04/14 02:10:07;;;;;;;4.85;1.10;;;;;;;;;;5281061;28;20020;-73
2023/04/14 02:12:40;;;;;;;4.63;0.93;;;;;;;;;;5280759;28;20366;-73
2023/04/14 02:15:12;;;;;;;4.95;1.00;;;;;;;;;;5281138;28;20103;-73
2023/04/14 02:17:45;;;;;;;4.13;1.20;;;;;;;;;;5280890;28;20394;-74
2023/04/14 02:20:18;;;;;;;3.70;0.80;;;;;;;;;;5281334;28;20012;-73
2023/04/14 02:22:49;;;;;;;7.03;1.58;;;;;;;;;;5279831;28;20479;-73
2023/04/14 02:25:22;;;;;;;5.07;1.00;;;;;;;;;;5282255;28;20029;-73
2023/04/14 02:27:55;;;;;;;5.68;1.05;;;;;;;;;;5284583;28;20012;-74
2023/04/14 02:30:28;;;;;;;7.18;1.10;;;;;;;;;;5285539;28;20025;-73
2023/04/14 02:33:04;;;;;;;5.13;1.02;;;;;;;;;;5285075;28;20027;-74
2023/04/14 02:35:45;;;;;;;3.75;0.80;;;;;;;;;;5284418;28;20020;-74
2023/04/14 02:38:42;;;;;;;5.25;0.90;;;;;;;;;;5285519;28;20016;-74
2023/04/14 02:41:24;;;;;;;3.10;0.80;;;;;;;;;;5280399;28;20028;-73
2023/04/14 02:43:58;;;;;;;3.03;0.90;;;;;;;;;;5284084;28;20526;-74
2023/04/14 02:46:32;;;;;;;3.08;0.70;;;;;;;;;;5285404;28;20032;-74
2023/04/14 02:49:05;;;;;;;5.45;0.93;;;;;;;;;;5284404;28;20106;-73
2023/04/14 02:51:36;;;;;;;4.68;1.05;;;;;;;;;;5285116;28;20024;-73
2023/04/14 02:54:08;;;;;;;4.03;1.10;;;;;;;;;;5285240;28;20042;-73
2023/04/14 02:56:39;;;;;;;3.85;0.90;;;;;;;;;;5283703;28;20074;-74
2023/04/14 02:59:11;;;;;;;4.75;0.80;;;;;;;;;;5285574;28;20447;-73
2023/04/14 03:01:42;;;;;;;3.05;0.93;;;;;;;;;;5284141;28;20020;-73
2023/04/14 03:04:14;;;;;;;5.47;0.95;;;;;;;;;;5284080;28;20469;-73
2023/04/14 03:06:45;;;;;;;5.22;0.82;;;;;;;;;;5284133;28;20403;-73
2023/04/14 03:09:17;;;;;;;3.67;0.90;;;;;;;;;;5285220;28;20025;-73
2023/04/14 03:11:49;;;;;;;5.45;0.90;;;;;;;;;;5283619;28;20052;-73
2023/04/14 03:14:20;;;;;;;3.90;0.90;;;;;;;;;;5284780;28;20062;-73
2023/04/14 03:16:52;;;;;;;4.43;1.00;;;;;;;;;;5283853;28;20021;-74
2023/04/14 03:19:25;;;;;;;3.80;0.95;;;;;;;;;;5284867;28;20463;-73
2023/04/14 03:21:58;;;;;;;3.65;1.20;;;;;;;;;;5284354;28;20024;-73
2023/04/14 03:24:33;;;;;;;4.57;1.08;;;;;;;;;;5283573;28;20044;-74
2023/04/14 03:27:10;;;;;;;3.80;0.80;;;;;;;;;;5284512;28;20126;-73
2023/04/14 03:29:44;;;;;;;4.50;0.90;;;;;;;;;;5283669;28;20033;-73
2023/04/14 03:32:16;;;;;;;5.10;0.80;;;;;;;;;;5283721;28;20467;-73
2023/04/14 03:34:50;;;;;;;4.57;1.10;;;;;;;;;;5283754;28;20456;-73
2023/04/14 03:37:24;;;;;;;5.32;0.80;;;;;;;;;;5282968;28;20029;-73
2023/04/14 03:39:59;;;;;;;5.32;0.90;;;;;;;;;;5282683;28;20435;-73
2023/04/14 03:42:31;;;;;;;5.45;1.20;;;;;;;;;;5283723;28;20017;-74
2023/04/14 03:45:02;;;;;;;5.55;1.60;;;;;;;;;;5283063;28;20039;-74
2023/04/14 03:47:34;;;;;;;4.13;1.00;;;;;;;;;;5283876;28;20019;-73
2023/04/14 03:50:08;;;;;;;3.63;1.15;;;;;;;;;;5284113;28;20016;-73
2023/04/14 03:52:41;;;;;;;5.07;0.88;;;;;;;;;;5282701;28;20086;-74
2023/04/14 03:55:14;;;;;;;3.95;1.00;;;;;;;;;;5284219;28;20023;-73
2023/04/14 03:57:46;;;;;;;4.93;1.10;;;;;;;;;;5283285;28;20482;-73
2023/04/14 04:00:18;;;;;;;5.53;0.90;;;;;;;;;;5282931;28;20150;-73
2023/04/14 04:02:49;;;;;;;6.35;1.67;;;;;;;;;;5283079;28;20051;-73
2023/04/14 04:05:21;;;;;;;5.30;1.20;;;;;;;;;;5283502;28;20442;-73
2023/04/14 04:07:52;;;;;;;6.57;0.93;;;;;;;;;;5282375;28;20017;-73
2023/04/14 04:10:24;;;;;;;5.18;0.88;;;;;;;;;;5283626;28;20058;-72
2023/04/14 04:12:56;;;;;;;4.25;0.98;;;;;;;;;;5282849;28;20040;-72
2023/04/14 04:15:29;;;;;;;3.45;0.90;;;;;;;;;;5282928;28;20509;-72
2023/04/14 04:18:02;;;;;;;5.68;1.00;;;;;;;;;;5283849;28;20116;-73
2023/04/14 04:20:34;;;;;;;4.10;0.95;;;;;;;;;;5282666;28;20020;-73
2023/04/14 04:23:06;;;;;;;6.28;1.30;;;;;;;;;;5283253;28;20048;-73
2023/04/14 04:25:39;;;;;;;5.93;1.20;;;;;;;;;;5282646;28;20024;-75
2023/04/14 04:28:10;;;;;;;5.38;1.42;;;;;;;;;;5282360;28;20043;-73
2023/04/14 04:30:43;;;;;;;3.40;1.13;;;;;;;;;;5282409;28;20459;-74
2023/04/14 04:33:15;;;;;;;4.97;1.02;;;;;;;;;;5283062;28;20024;-74
2023/04/14 04:35:46;;;;;;;4.72;1.17;;;;;;;;;;5281528;28;20082;-73
2023/04/14 04:38:18;;;;;;;8.55;1.60;;;;;;;;;;5282906;28;20059;-74
2023/04/14 04:40:49;;;;;;;3.85;0.98;;;;;;;;;;5281773;28;20035;-74
2023/04/14 04:43:20;;;;;;;4.50;1.42;;;;;;;;;;5281855;28;20431;-74
2023/04/14 04:46:11;;;;;;;5.13;1.77;;;;;;;;;;5281806;28;20114;-74
2023/04/14 04:48:43;;;;;;;5.30;1.50;;;;;;;;;;5281123;28;20027;-74
2023/04/14 04:51:14;;;;;;;4.90;1.15;;;;;;;;;;5282715;28;20021;-74
2023/04/14 04:53:45;;;;;;;6.55;1.42;;;;;;;;;;5282361;28;20530;-75
2023/04/14 04:56:16;;;;;;;5.16;1.02;;;;;;;;;;5282017;28;20047;-74
2023/04/14 04:58:47;;;;;;;7.92;1.76;;;;;;;;;;5282010;28;20070;-74
2023/04/14 05:01:19;;;;;;;7.97;1.45;;;;;;;;;;5282244;28;20048;-74
2023/04/14 05:03:50;;;;;;;4.78;1.08;;;;;;;;;;5281370;28;20405;-74
2023/04/14 05:06:21;;;;;;;5.10;0.98;;;;;;;;;;5282483;28;20039;-74
2023/04/14 05:08:53;;;;;;;5.40;1.10;;;;;;;;;;5281782;28;20013;-74
2023/04/14 05:11:25;;;;;;;6.05;1.52;;;;;;;;;;5281651;28;20016;-74
2023/04/14 05:13:57;;;;;;;5.00;1.77;;;;;;;;;;5281752;28;20020;-74
2023/04/14 05:16:28;;;;;;;5.48;1.46;;;;;;;;;;5281661;28;20024;-75
2023/04/14 05:18:59;;;;;;;5.60;1.30;;;;;;;;;;5281744;28;20024;-74
2023/04/14 05:21:31;;;;;;;5.05;1.55;;;;;;;;;;5282034;28;20090;-74
2023/04/14 05:24:03;;;;;;;5.40;1.00;;;;;;;;;;5281146;28;20045;-74
2023/04/14 05:26:34;;;;;;;6.25;1.10;;;;;;;;;;5282022;28;20024;-74
2023/04/14 05:29:05;;;;;;;5.00;1.67;;;;;;;;;;5281972;28;20027;-74
2023/04/14 05:31:36;;;;;;;4.93;1.63;;;;;;;;;;5281585;28;20042;-74
2023/04/14 05:34:07;;;;;;;4.16;1.20;;;;;;;;;;5281796;28;20027;-73
2023/04/14 05:36:39;;;;;;;8.13;2.05;;;;;;;;;;5281474;28;20110;-74
2023/04/14 05:39:10;;;;;;;7.02;1.50;;;;;;;;;;5281394;28;20027;-73
2023/04/14 05:41:41;;;;;;;5.32;0.98;;;;;;;;;;5281618;28;20062;-74
2023/04/14 05:44:12;;;;;;;5.16;1.20;;;;;;;;;;5281848;28;20016;-74
2023/04/14 05:46:44;;;;;;;3.90;1.62;;;;;;;;;;5280279;28;20032;-73
2023/04/14 05:49:15;;;;;;;5.88;1.40;;;;;;;;;;5281445;28;20029;-75
2023/04/14 05:51:46;;;;;;;7.00;1.17;;;;;;;;;;5280412;28;20443;-74
2023/04/14 05:54:17;;;;;;;5.15;1.42;;;;;;;;;;5281710;28;20021;-76
2023/04/14 05:56:48;;;;;;;6.88;1.42;;;;;;;;;;5280945;28;20031;-73
2023/04/14 05:59:19;;;;;;;5.60;1.88;;;;;;;;;;5280497;28;20016;-73
2023/04/14 06:01:51;;;;;;;5.72;1.15;;;;;;;;;;5280515;28;20479;-73
2023/04/14 06:04:22;;;;;;;7.60;1.23;;;;;;;;;;5281875;28;20059;-73
2023/04/14 06:06:53;;;;;;;6.28;1.20;;;;;;;;;;5280117;28;20090;-74
2023/04/14 06:09:24;;;;;;;6.32;0.80;;;;;;;;;;5281612;28;20081;-74
2023/04/14 06:11:56;;;;;;;5.43;0.90;;;;;;;;;;5280843;28;20047;-74
2023/04/14 06:14:27;;;;;;;3.70;0.82;;;;;;;;;;5281004;28;20012;-74
2023/04/14 06:16:58;;;;;;;3.85;0.80;;;;;;;;;;5280895;28;20036;-74
2023/04/14 06:19:29;;;;;;;4.90;0.80;;;;;;;;;;5280858;28;20417;-75
2023/04/14 06:22:01;;;;;;;5.00;1.02;;;;;;;;;;5280374;28;20052;-74
2023/04/14 06:24:33;;;;;;;5.50;0.90;;;;;;;;;;5281170;28;20059;-74
2023/04/14 06:27:05;;;;;;;6.47;1.17;;;;;;;;;;5280536;28;20024;-77
2023/04/14 06:29:36;;;;;;;5.68;1.30;;;;;;;;;;5281338;28;20017;-75
2023/04/14 06:32:07;;;;;;;5.88;1.50;;;;;;;;;;5281220;28;20470;-74
2023/04/14 06:34:39;;;;;;;3.92;0.95;;;;;;;;;;5279606;28;20021;-75
2023/04/14 06:37:10;;;;;;;3.63;1.20;;;;;;;;;;5281350;28;20029;-75
2023/04/14 06:39:42;;;;;;;5.95;1.10;;;;;;;;;;5280952;28;20013;-75
2023/04/14 06:42:14;;;;;;;5.35;1.13;;;;;;;;;;5280670;28;20024;-74
2023/04/14 06:44:45;;;;;;;4.82;0.98;;;;;;;;;;5280676;28;20023;-74
2023/04/14 06:47:17;;;;;;;6.63;0.95;;;;;;;;;;5281327;28;20028;-74
2023/04/14 06:49:48;;;;;;;8.00;0.93;;;;;;;;;;5279470;28;20048;-74
2023/04/14 06:52:19;;;;;;;4.57;1.23;;;;;;;;;;5281235;28;20096;-75
2023/04/14 06:54:51;;;;;;;5.18;1.25;;;;;;;;;;5280554;28;20138;-75
2023/04/14 06:57:22;;;;;;;3.88;1.00;;;;;;;;;;5280706;28;20021;-75
2023/04/14 06:59:53;;;;;;;5.28;0.90;;;;;;;;;;5280703;28;20294;-73
2023/04/14 07:02:24;;;;;;;4.13;0.80;;;;;;;;;;5280441;28;20055;-72
2023/04/14 07:04:56;;;;;;;3.42;0.80;;;;;;;;;;5280369;28;20463;-76
2023/04/14 07:07:27;;;;;;;6.50;1.15;;;;;;;;;;5280880;28;20371;-75
2023/04/14 07:09:58;;;;;;;5.07;1.00;;;;;;;;;;5279597;28;20622;-76
2023/04/14 07:12:29;;;;;;;6.57;1.30;;;;;;;;;;5283172;28;20028;-75
2023/04/14 07:15:00;;;;;;;6.90;1.10;;;;;;;;;;5284467;28;20325;-76
2023/04/14 07:17:34;;;;;;;3.50;0.90;;;;;;;;;;5283975;28;20354;-76
2023/04/14 07:20:05;;;;;;;3.40;1.23;;;;;;;;;;5284923;28;20278;-76
2023/04/14 07:22:37;;;;;;;4.32;1.15;;;;;;;;;;5284491;28;20025;-76
2023/04/14 07:25:08;;;;;;;5.87;1.00;;;;;;;;;;5283698;28;20071;-76
2023/04/14 07:27:39;;;;;;;5.80;1.00;;;;;;;;;;5284553;28;20275;-76
2023/04/14 07:30:11;;;;;;;5.63;1.27;;;;;;;;;;5284012;28;20031;-76
2023/04/14 07:32:42;;;;;;;3.53;1.10;;;;;;;;;;5284172;28;20032;-76
2023/04/14 07:35:13;;;;;;;4.03;1.10;;;;;;;;;;5284589;28;20017;-76
2023/04/14 07:37:44;;;;;;;3.95;1.10;;;;;;;;;;5283158;28;20713;-77
2023/04/14 07:40:16;;;;;;;3.73;0.80;;;;;;;;;;5284441;28;20483;-75
2023/04/14 07:42:47;;;;;;;2.95;0.88;;;;;;;;;;5283884;28;20271;-76
2023/04/14 07:45:18;;;;;;;6.22;0.98;;;;;;;;;;5283358;28;20100;-75
2023/04/14 07:47:51;;;;;;;4.00;1.00;;;;;;;;;;5283389;28;20031;-76
2023/04/14 07:50:22;;;;;;;3.35;0.90;;;;;;;;;;5283997;28;20270;-76
2023/04/14 07:52:53;;;;;;;4.40;0.90;;;;;;;;;;5282811;28;20024;-74
2023/04/14 07:55:25;;;;;;;4.20;0.80;;;;;;;;;;5284362;28;20024;-74
2023/04/14 07:57:56;;;;;;;3.95;0.70;;;;;;;;;;5283516;28;20016;-73
2023/04/14 08:00:27;;;;;;;2.42;0.75;;;;;;;;;;5283601;28;20015;-77
2023/04/14 08:02:59;;;;;;;2.63;0.60;;;;;;;;;;5283592;28;20091;-77
2023/04/14 08:05:30;;;;;;;2.88;0.70;;;;;;;;;;5282950;28;20044;-77
2023/04/14 08:08:02;;;;;;;3.60;0.93;;;;;;;;;;5283875;28;20009;-77
2023/04/14 08:10:33;;;;;;;5.53;0.93;;;;;;;;;;5283842;28;20351;-77
2023/04/14 08:13:04;;;;;;;4.32;0.70;;;;;;;;;;5283095;28;20016;-77
2023/04/14 08:15:35;;;;;;;4.00;0.80;;;;;;;;;;5283941;28;20028;-75
2023/04/14 08:18:07;;;;;;;2.95;0.60;;;;;;;;;;5283797;28;20031;-75
2023/04/14 08:20:38;;;;;;;3.60;0.60;;;;;;;;;;5282642;28;20285;-76
2023/04/14 08:23:10;;;;;;;2.13;0.47;;;;;;;;;;5283147;28;20286;-76
2023/04/14 08:25:43;;;;;;;2.17;0.60;;;;;;;;;;5282963;28;20384;-77
2023/04/14 08:28:14;;;;;;;1.77;0.40;;;;;;;;;;5282934;28;20091;-75
2023/04/14 08:30:46;;;;;;;4.40;0.50;;;;;;;;;;5283156;28;20523;-77
2023/04/14 08:33:17;;;;;;;2.72;0.55;;;;;;;;;;5284109;28;20259;-75
2023/04/14 08:35:49;;;;;;;2.55;0.50;;;;;;;;;;5282162;28;20090;-76
2023/04/14 08:38:20;;;;;;;1.38;0.30;;;;;;;;;;5283228;28;20047;-76
2023/04/14 08:40:54;;;;;;;3.10;0.40;;;;;;;;;;5282095;28;20070;-76
2023/04/14 08:43:25;;;;;;;3.55;0.50;;;;;;;;;;5283464;28;20490;-75
2023/04/14 08:45:56;;;;;;;2.97;0.50;;;;;;;;;;5282582;28;20032;-75
2023/04/14 08:48:29;;;;;;;2.55;0.40;;;;;;;;;;5282513;28;20013;-75
2023/04/14 08:51:06;;;;;;;2.78;0.50;;;;;;;;;;5283072;28;20024;-76
2023/04/14 08:53:42;;;;;;;2.80;0.47;;;;;;;;;;5278600;28;20452;-77
2023/04/14 08:56:15;;;;;;;5.85;0.60;;;;;;;;;;5282745;28;20016;-76
2023/04/14 08:58:47;;;;;;;2.25;0.40;;;;;;;;;;5282479;28;20459;-76
2023/04/14 09:01:19;;;;;;;2.45;0.40;;;;;;;;;;5282018;28;20152;-75
2023/04/14 09:03:51;;;;;;;2.33;0.45;;;;;;;;;;5271966;28;20679;-75
2023/04/14 09:06:22;;;;;;;5.85;0.95;;;;;;;;;;5273046;28;20391;-75
2023/04/14 09:08:54;;;;;;;5.38;0.73;;;;;;;;;;5280429;28;20082;-76
2023/04/14 09:11:26;;;;;;;6.78;0.50;;;;;;;;;;5280374;28;20052;-76
2023/04/14 09:13:58;;;;;;;2.60;0.50;;;;;;;;;;5280109;28;20364;-76
2023/04/14 09:16:29;;;;;;;2.15;0.40;;;;;;;;;;5279865;28;20020;-76
2023/04/14 09:19:01;;;;;;;3.60;0.50;;;;;;;;;;5276318;28;20013;-76
2023/04/14 09:21:32;;;;;;;2.77;0.40;;;;;;;;;;5261218;28;20074;-76
2023/04/14 09:24:04;;;;;;;2.58;0.40;;;;;;;;;;5259966;28;20311;-76
2023/04/14 09:26:35;;;;;;;4.53;0.50;;;;;;;;;;5260530;28;20075;-76
2023/04/14 09:29:06;;;;;;;4.60;0.60;;;;;;;;;;5261156;28;20113;-76
2023/04/14 09:31:37;;;;;;;3.58;0.40;;;;;;;;;;5259843;28;20017;-77
2023/04/14 09:34:19;;;;;;;2.90;0.40;;;;;;;;;;5270467;28;20275;-76
2023/04/14 09:37:04;;;;;;;4.60;0.50;;;;;;;;;;5279818;28;20060;-76
2023/04/14 09:39:45;;;;;;;3.45;0.40;;;;;;;;;;5281064;28;20012;-76
2023/04/14 09:42:17;;;;;;;3.83;0.45;;;;;;;;;;5280761;28;20025;-73
2023/04/14 09:44:55;;;;;;;3.25;0.50;;;;;;;;;;5280447;28;20035;-76
2023/04/14 09:47:26;;;;;;;2.13;0.40;;;;;;;;;;5280699;28;20036;-77
2023/04/14 09:50:02;;;;;;;2.03;0.40;;;;;;;;;;5281095;28;20379;-77
2023/04/14 09:52:43;;;;;;;2.25;0.35;;;;;;;;;;5280730;28;20274;-77
2023/04/14 09:55:15;;;;;;;2.05;0.30;;;;;;;;;;5278070;28;20780;-75
2023/04/14 09:57:46;;;;;;;2.33;0.47;;;;;;;;;;5280536;28;20091;-76
2023/04/14 10:00:22;;;;;;;4.35;0.55;;;;;;;;;;5281443;28;20095;-75
2023/04/14 10:02:56;;;;;;;1.73;0.43;;;;;;;;;;5280568;28;20017;-76
2023/04/14 10:05:27;;;;;;;2.15;0.55;;;;;;;;;;5280514;28;20028;-76
2023/04/14 10:08:02;;;;;;;2.75;0.73;;;;;;;;;;5280960;28;20065;-76
2023/04/14 10:10:33;;;;;;;2.88;0.40;;;;;;;;;;5280432;28;20036;-76
2023/04/14 10:13:05;;;;;;;2.78;0.52;;;;;;;;;;5279984;28;20410;-76
2023/04/14 10:15:36;;;;;;;2.75;0.40;;;;;;;;;;5280591;28;20398;-75
2023/04/14 10:18:07;;;;;;;3.55;0.60;;;;;;;;;;5280831;28;20463;-75
2023/04/14 10:20:38;;;;;;;2.67;0.40;;;;;;;;;;5279740;28;20467;-77
2023/04/14 10:23:10;;;;;;;2.80;0.40;;;;;;;;;;5280801;28;20442;-76
2023/04/14 10:25:41;;;;;;;3.47;0.55;;;;;;;;;;5278753;28;20512;-76
2023/04/14 10:28:14;;;;;;;4.80;0.50;;;;;;;;;;5279300;28;20467;-76
2023/04/14 10:30:45;;;;;;;1.95;0.50;;;;;;;;;;5280425;28;20039;-75
2023/04/14 10:33:17;;;;;;;5.03;0.70;;;;;;;;;;5280514;28;20021;-76
2023/04/14 10:35:50;;;;;;;2.40;0.50;;;;;;;;;;5280358;28;20056;-76
2023/04/14 10:38:21;;;;;;;2.22;0.40;;;;;;;;;;5281028;28;20021;-76
2023/04/14 10:40:52;;;;;;;4.47;0.45;;;;;;;;;;5279278;28;20028;-77
2023/04/14 10:43:26;;;;;;;6.43;0.70;;;;;;;;;;5281422;28;20017;-76
2023/04/14 10:45:58;;;;;;;3.13;0.40;;;;;;;;;;5281029;28;20120;-76
2023/04/14 10:48:39;;;;;;;3.72;0.60;;;;;;;;;;5284409;28;20435;-78
2023/04/14 10:51:11;;;;;;;2.47;0.43;;;;;;;;;;5285325;28;20099;-77
2023/04/14 10:53:48;;;;;;;2.50;0.40;;;;;;;;;;5284857;28;20024;-77
2023/04/14 10:56:21;;;;;;;3.58;0.40;;;;;;;;;;5284694;28;20035;-76
2023/04/14 10:58:56;;;;;;;5.57;0.50;;;;;;;;;;5284804;28;20021;-76
2023/04/14 11:01:29;;;;;;;2.78;0.40;;;;;;;;;;5284300;28;20122;-77
2023/04/14 11:04:30;;;;;;;2.53;0.40;;;;;;;;;;5283877;28;20062;-77
2023/04/14 11:07:07;;;;;;;2.65;0.40;;;;;;;;;;5263314;28;20036;-77
2023/04/14 11:09:38;;;;;;;2.22;0.30;;;;;;;;;;5283247;28;20025;-77
2023/04/14 11:12:26;;;;;;;3.03;0.40;;;;;;;;;;5284563;28;20020;-77
2023/04/14 11:15:01;;;;;;;2.67;0.40;;;;;;;;;;5284371;28;20035;-78
2023/04/14 11:17:36;;;;;;;3.40;0.40;;;;;;;;;;5283560;28;20042;-78
2023/04/14 11:20:22;;;;;;;2.08;0.20;;;;;;;;;;5284270;28;20021;-74
2023/04/14 11:22:56;;;;;;;1.80;0.38;;;;;;;;;;5282698;28;20124;-73
2023/04/14 11:25:27;;;;;;;2.70;0.40;;;;;;;;;;5284180;28;20033;-71
2023/04/14 11:28:00;;;;;;;3.00;0.40;;;;;;;;;;5284095;28;20020;-76
2023/04/14 11:30:31;;;;;;;3.28;0.40;;;;;;;;;;5283299;28;20375;-76
2023/04/14 11:33:03;;;;;;;3.63;0.35;;;;;;;;;;5283573;28;20027;-77
2023/04/14 11:35:34;;;;;;;4.10;0.32;;;;;;;;;;5284273;28;20485;-76
2023/04/14 11:38:08;;;;;;;2.47;0.50;;;;;;;;;;5283303;28;20028;-76
2023/04/14 11:40:39;;;;;;;2.38;0.40;;;;;;;;;;5283413;28;20287;-77
2023/04/14 11:43:11;;;;;;;5.13;0.40;;;;;;;;;;5284492;28;20009;-76
2023/04/14 11:45:42;;;;;;;4.70;0.40;;;;;;;;;;5283445;28;20024;-77
2023/04/14 11:48:20;;;;;;;3.88;0.45;;;;;;;;;;5284843;28;20102;-77
2023/04/14 11:50:52;;;;;;;1.60;0.38;;;;;;;;;;5283115;28;20475;-77
2023/04/14 11:53:25;;;;;;;4.88;0.50;;;;;;;;;;5284499;28;20028;-76
2023/04/14 11:55:56;;;;;;;2.95;0.40;;;;;;;;;;5283720;28;20432;-76
2023/04/14 11:58:28;;;;;;;4.60;0.60;;;;;;;;;;5282035;28;20040;-77
2023/04/14 12:00:59;;;;;;;2.20;0.40;;;;;;;;;;5283496;28;20154;-77
2023/04/14 12:03:31;;;;;;;1.63;0.35;;;;;;;;;;5283463;28;20028;-78
2023/04/14 12:06:03;;;;;;;2.40;0.30;;;;;;;;;;5282610;28;20032;-76
2023/04/14 12:08:35;;;;;;;1.52;0.32;;;;;;;;;;5283508;28;20024;-77
2023/04/14 12:11:12;;;;;;;3.17;0.40;;;;;;;;;;5284008;28;20364;-77
2023/04/14 12:13:45;;;;;;;4.13;0.43;;;;;;;;;;5282819;28;20118;-77
2023/04/14 12:16:17;;;;;;;1.25;0.20;;;;;;;;;;5283324;28;20021;-78
2023/04/14 12:18:48;;;;;;;2.22;0.47;;;;;;;;;;5282318;28;20391;-76
2023/04/14 12:21:20;;;;;;;4.40;0.50;;;;;;;;;;5283720;28;20028;-78
2023/04/14 12:23:51;;;;;;;3.58;0.32;;;;;;;;;;5282958;28;20293;-76
2023/04/14 12:26:24;;;;;;;2.70;0.40;;;;;;;;;;5282951;28;20033;-78
2023/04/14 12:28:56;;;;;;;1.35;0.30;;;;;;;;;;5283070;28;20259;-77
2023/04/14 12:31:30;;;;;;;2.08;0.30;;;;;;;;;;5283468;28;20029;-78
2023/04/14 12:34:02;;;;;;;3.10;0.40;;;;;;;;;;5282558;28;20146;-77
2023/04/14 12:36:37;;;;;;;2.65;0.40;;;;;;;;;;5283397;28;20091;-78
2023/04/14 12:39:09;;;;;;;1.52;0.40;;;;;;;;;;5282955;28;20017;-78
2023/04/14 12:41:40;;;;;;;3.08;0.30;;;;;;;;;;5281587;28;20119;-78
2023/04/14 12:44:23;;;;;;;2.33;0.40;;;;;;;;;;5282956;28;20091;-77
2023/04/14 12:46:54;;;;;;;4.25;0.47;;;;;;;;;;5281603;28;20111;-75
2023/04/14 12:49:36;;;;;;;2.03;0.30;;;;;;;;;;5283259;28;20536;-77
2023/04/14 12:52:07;;;;;;;2.55;0.40;;;;;;;;;;5282292;28;20028;-76
2023/04/14 12:54:44;;;;;;;3.45;0.40;;;;;;;;;;5281790;28;20017;-77
2023/04/14 12:57:17;;;;;;;1.88;0.30;;;;;;;;;;5282833;28;20273;-76
2023/04/14 12:59:49;;;;;;;5.15;0.30;;;;;;;;;;5282775;28;20017;-76
2023/04/14 13:02:21;;;;;;;4.18;0.38;;;;;;;;;;5282258;28;20025;-76
2023/04/14 13:04:52;;;;;;;2.15;0.35;;;;;;;;;;5282173;28;20020;-76
2023/04/14 13:07:23;;;;;;;1.75;0.25;;;;;;;;;;5282407;28;20191;-77
2023/04/14 13:09:54;;;;;;;1.92;0.35;;;;;;;;;;5281075;28;20498;-76
2023/04/14 13:12:26;;;;;;;1.83;0.30;;;;;;;;;;5282498;28;20158;-77
2023/04/14 13:14:57;;;;;;;3.10;0.40;;;;;;;;;;5280986;28;20271;-77
2023/04/14 13:17:28;;;;;;;2.25;0.30;;;;;;;;;;5282188;28;20332;-77
2023/04/14 13:20:00;;;;;;;2.30;0.30;;;;;;;;;;5281823;28;20020;-77
2023/04/14 13:22:31;;;;;;;2.78;0.30;;;;;;;;;;5280826;28;20031;-76
2023/04/14 13:25:03;;;;;;;1.98;0.30;;;;;;;;;;5281577;28;20036;-75
2023/04/14 13:27:34;;;;;;;2.92;0.20;;;;;;;;;;5281794;28;20016;-77
2023/04/14 13:30:05;;;;;;;1.70;0.30;;;;;;;;;;5280818;28;20016;-78
2023/04/14 13:32:36;;;;;;;1.90;0.40;;;;;;;;;;5280231;28;20335;-75
2023/04/14 13:35:08;;;;;;;3.37;0.47;;;;;;;;;;5280539;28;20436;-75
2023/04/14 13:37:40;;;;;;;3.83;0.22;;;;;;;;;;5280461;28;20613;-75
2023/04/14 13:40:11;;;;;;;1.50;0.20;;;;;;;;;;5281529;28;20095;-73
2023/04/14 13:42:42;;;;;;;1.80;0.30;;;;;;;;;;5281123;28;20107;-75
2023/04/14 13:45:13;;;;;;;1.70;0.30;;;;;;;;;;5280700;28;20475;-74
2023/04/14 13:47:48;;;;;;;2.55;0.25;;;;;;;;;;5281101;28;20012;-74
2023/04/14 13:50:19;;;;;;;2.25;0.30;;;;;;;;;;5280731;28;20070;-74
2023/04/14 13:52:50;;;;;;;2.75;0.30;;;;;;;;;;5280649;28;20016;-76
2023/04/14 13:55:22;;;;;;;3.40;0.32;;;;;;;;;;5281877;28;20012;-73
2023/04/14 13:57:53;;;;;;;1.65;0.30;;;;;;;;;;5280355;28;20123;-74
2023/04/14 14:00:25;;;;;;;3.33;0.30;;;;;;;;;;5281489;28;20282;-74
2023/04/14 14:02:56;;;;;;;2.08;0.30;;;;;;;;;;5280626;28;20625;-74
2023/04/14 14:05:27;;;;;;;4.88;0.40;;;;;;;;;;5280659;28;20396;-76
2023/04/14 14:07:58;;;;;;;2.45;0.30;;;;;;;;;;5280650;28;20095;-74
2023/04/14 14:10:29;;;;;;;1.73;0.25;;;;;;;;;;5281054;28;20382;-74
2023/04/14 14:13:01;;;;;;;3.13;0.32;;;;;;;;;;5280213;28;20012;-74
2023/04/14 14:15:32;;;;;;;2.47;0.30;;;;;;;;;;5281035;28;20491;-73
2023/04/14 14:18:03;;;;;;;1.60;0.30;;;;;;;;;;5280188;28;20378;-74
2023/04/14 14:20:35;;;;;;;2.50;0.30;;;;;;;;;;5280673;28;20382;-73
2023/04/14 14:23:06;;;;;;;4.60;0.60;;;;;;;;;;5280512;28;20294;-74
2023/04/14 14:25:39;;;;;;;2.85;0.30;;;;;;;;;;5279641;28;20486;-75
2023/04/14 14:28:11;;;;;;;2.05;0.40;;;;;;;;;;5281200;28;20082;-74
2023/04/14 14:30:42;;;;;;;3.33;0.30;;;;;;;;;;5281001;28;20663;-74
2023/04/14 14:33:13;;;;;;;1.07;0.20;;;;;;;;;;5280524;28;20021;-75
2023/04/14 14:35:45;;;;;;;3.67;0.30;;;;;;;;;;5280138;28;20365;-74
2023/04/14 14:38:16;;;;;;;2.50;0.40;;;;;;;;;;5280854;28;20254;-72
2023/04/14 14:40:47;;;;;;;1.17;0.20;;;;;;;;;;5279753;28;20055;-79
2023/04/14 14:43:18;;;;;;;1.95;0.30;;;;;;;;;;5281027;28;20271;-79
2023/04/14 14:45:50;;;;;;;1.15;0.22;;;;;;;;;;5280553;28;20081;-78
2023/04/14 14:48:21;;;;;;;1.92;0.22;;;;;;;;;;5280137;28;20274;-78
2023/04/14 14:50:52;;;;;;;1.08;0.20;;;;;;;;;;5280493;28;20375;-79
2023/04/14 14:53:23;;;;;;;4.28;0.50;;;;;;;;;;5280453;28;20099;-78
2023/04/14 14:55:54;;;;;;;1.52;0.30;;;;;;;;;;5280590;28;20104;-78
2023/04/14 14:58:26;;;;;;;5.55;0.30;;;;;;;;;;5281090;28;20263;-79
2023/04/14 15:00:57;;;;;;;2.10;0.30;;;;;;;;;;5279868;28;20518;-79
2023/04/14 15:03:28;;;;;;;2.00;0.30;;;;;;;;;;5280992;28;20017;-79
2023/04/14 15:06:00;;;;;;;1.13;0.20;;;;;;;;;;5280892;28;20387;-80
2023/04/14 15:08:32;;;;;;;1.70;0.40;;;;;;;;;;5280439;28;20056;-79
2023/04/14 15:11:03;;;;;;;1.42;0.20;;;;;;;;;;5280731;28;20112;-79
2023/04/14 15:13:34;;;;;;;1.60;0.20;;;;;;;;;;5280799;28;20024;-79
2023/04/14 15:16:05;;;;;;;1.17;0.20;;;;;;;;;;5280252;28;20020;-79